Time;durP1;ratioP1;P1;durP2;ratioP2;P2;SDS_P1;SDS_P2;PMS_P1;PMS_P2;Temp;Humidity;BMP_temperature;BMP_pressure;BME280_temperature;BME280_humidity;BME280_pressure;Samples;Min_cycle;Max_cycle;Signal;HPM_P1;HPM_P2
2024/03/21 00:01:31;;;;;;;48.70;32.60;;;;;;;3.29;75.63;99942.14;437757;1254;139313;-60
2024/03/21 00:11:36;;;;;;;40.90;29.70;;;;;;;3.13;76.37;99940.65;437993;1254;138830;-60
2024/03/21 00:21:42;;;;;;;38.40;28.90;;;;;;;2.97;76.54;99940.57;438096;1251;139361;-61
2024/03/21 00:31:47;;;;;;;45.70;30.90;;;;;;;2.80;77.39;99941.52;438227;1250;138890;-48
2024/03/21 00:41:53;;;;;;;41.60;29.40;;;;;;;2.68;77.94;99936.48;438338;1253;139059;-52
2024/03/21 00:51:58;;;;;;;41.50;29.40;;;;;;;2.55;78.37;99927.13;437988;1250;138947;-61
2024/03/21 01:02:04;;;;;;;45.40;31.00;;;;;;;2.44;79.15;99924.30;437668;1253;139856;-62
2024/03/21 01:12:10;;;;;;;43.70;29.40;;;;;;;2.34;80.03;99920.23;437844;1253;139770;-61
2024/03/21 01:22:15;;;;;;;42.60;30.00;;;;;;;2.23;80.56;99913.42;437582;1251;140268;-48
2024/03/21 01:32:21;;;;;;;43.40;30.10;;;;;;;2.11;81.19;99901.05;437802;1253;138917;-62
2024/03/21 01:42:27;;;;;;;38.00;28.90;;;;;;;1.98;81.66;99900.36;439222;1251;139849;-49
2024/03/21 01:52:34;;;;;;;46.00;30.60;;;;;;;1.85;82.12;99895.30;438230;1251;138823;-50
2024/03/21 02:02:39;;;;;;;44.00;28.80;;;;;;;1.73;82.88;99894.37;438322;1251;139516;-50
2024/03/21 02:12:47;;;;;;;36.20;25.90;;;;;;;1.57;83.28;99900.59;437619;1251;141113;-48
2024/03/21 02:22:52;;;;;;;39.90;27.80;;;;;;;1.38;83.88;99891.66;438283;1251;138925;-61
2024/03/21 02:32:58;;;;;;;44.70;29.90;;;;;;;1.25;84.84;99880.38;437629;1254;138896;-62
2024/03/21 02:43:04;;;;;;;38.30;26.50;;;;;;;1.16;85.91;99873.83;438037;1250;139096;-61
2024/03/21 02:53:09;;;;;;;36.80;26.90;;;;;;;1.05;86.21;99873.02;437911;1251;138935;-61
2024/03/21 03:03:15;;;;;;;38.10;28.80;;;;;;;0.95;87.19;99874.27;438028;1253;139044;-60
2024/03/21 03:13:21;;;;;;;35.60;26.80;;;;;;;0.91;87.75;99872.60;438062;1253;138907;-60
2024/03/21 03:23:26;;;;;;;38.00;28.70;;;;;;;0.87;88.15;99876.48;438513;1251;139506;-61
2024/03/21 03:43:55;;;;;;;33.60;24.30;;;;;;;0.92;89.76;99883.10;437912;1253;139010;-61
2024/03/21 03:54:01;;;;;;;35.60;25.90;;;;;;;1.06;90.46;99883.52;437897;1253;138926;-61
2024/03/21 04:04:06;;;;;;;36.60;26.00;;;;;;;1.23;90.77;99880.26;437812;1253;139450;-61
2024/03/21 04:14:12;;;;;;;34.10;24.10;;;;;;;1.41;90.87;99883.16;437897;1251;139226;-61
2024/03/21 04:24:17;;;;;;;31.30;24.70;;;;;;;1.54;90.91;99885.29;438016;1253;138871;-61
2024/03/21 04:34:23;;;;;;;34.30;25.30;;;;;;;1.63;90.55;99882.67;437651;1251;139185;-62
2024/03/21 04:44:29;;;;;;;35.80;25.60;;;;;;;1.70;90.61;99889.10;437651;1251;139298;-61
2024/03/21 04:54:34;;;;;;;39.10;27.00;;;;;;;1.75;90.51;99899.85;437818;1250;139324;-58
2024/03/21 05:04:39;;;;;;;30.90;22.30;;;;;;;1.77;90.56;99900.48;439159;1251;139031;-62
2024/03/21 05:14:45;;;;;;;31.80;23.60;;;;;;;1.91;90.55;99907.77;438038;1250;139259;-61
2024/03/21 05:24:50;;;;;;;35.10;23.60;;;;;;;2.02;90.09;99901.30;437788;1252;139306;-62
2024/03/21 05:34:56;;;;;;;30.30;23.50;;;;;;;2.10;89.83;99899.55;438069;1251;138986;-50
2024/03/21 05:45:02;;;;;;;31.70;23.80;;;;;;;2.35;90.04;99893.77;437910;1250;138907;-48
2024/03/21 05:55:09;;;;;;;31.00;24.10;;;;;;;2.81;89.75;99881.50;438054;1250;139477;-60
2024/03/21 06:05:15;;;;;;;28.50;23.00;;;;;;;3.64;90.16;99873.90;438506;1250;138787;-63
2024/03/21 06:15:21;;;;;;;30.60;24.60;;;;;;;5.55;87.65;99884.02;438311;1253;139317;-63
2024/03/21 06:25:26;;;;;;;32.90;24.80;;;;;;;6.29;83.59;99875.77;437561;1251;139537;-62
2024/03/21 06:35:32;;;;;;;33.00;26.40;;;;;;;6.49;80.53;99873.89;438201;1251;139359;-63
2024/03/21 06:45:37;;;;;;;34.60;27.30;;;;;;;6.69;78.98;99881.37;437976;1253;138807;-62
2024/03/21 06:55:43;;;;;;;33.30;25.30;;;;;;;6.58;77.88;99877.35;438103;1253;139267;-60
2024/03/21 07:05:50;;;;;;;36.60;26.10;;;;;;;6.72;77.53;99875.52;438125;1250;138960;-58
2024/03/21 07:15:55;;;;;;;39.80;28.00;;;;;;;7.05;76.80;99878.95;438112;1253;139125;-59
2024/03/21 07:26:01;;;;;;;29.20;24.20;;;;;;;7.52;76.03;99878.41;438017;1253;139533;-63
2024/03/21 07:36:07;;;;;;;35.20;24.60;;;;;;;8.29;75.29;99876.27;438591;1253;140030;-62
2024/03/21 07:46:17;;;;;;;37.30;25.40;;;;;;;9.82;73.84;99877.90;438516;1253;139481;-64
2024/03/21 07:56:22;;;;;;;30.00;25.40;;;;;;;10.97;71.47;99873.66;438058;1253;139385;-63
2024/03/21 08:06:28;;;;;;;36.30;28.40;;;;;;;13.76;69.10;99867.57;438441;1254;140784;-63
2024/03/21 08:16:35;;;;;;;30.50;27.30;;;;;;;17.00;64.71;99871.42;434955;1251;5104044;-69
2024/03/21 08:26:40;;;;;;;33.30;29.70;;;;;;;19.91;58.75;99861.92;438571;1253;139718;-60
2024/03/21 08:36:46;;;;;;;29.50;26.40;;;;;;;21.28;52.91;99856.73;437899;1253;139275;-60
2024/03/21 08:46:52;;;;;;;29.40;26.40;;;;;;;20.85;49.35;99852.45;438757;1253;138903;-62
2024/03/21 08:56:57;;;;;;;33.20;29.80;;;;;;;20.07;47.93;99852.06;439791;1251;138548;-64
2024/03/21 09:07:04;;;;;;;34.00;28.60;;;;;;;19.29;46.84;99842.49;438090;1251;139127;-59
2024/03/21 09:17:10;;;;;;;30.90;27.40;;;;;;;17.83;46.56;99841.29;438548;1251;139219;-62
2024/03/21 09:27:15;;;;;;;29.10;23.50;;;;;;;16.44;46.91;99832.29;439568;1251;138481;-67
2024/03/21 09:37:26;;;;;;;33.60;27.30;;;;;;;15.36;47.41;99828.00;441543;1253;138479;-62
2024/03/21 09:47:35;;;;;;;31.50;26.80;;;;;;;14.48;48.48;99818.41;438569;1253;139107;-76
2024/03/21 09:57:40;;;;;;;34.70;26.90;;;;;;;14.17;49.26;99807.52;438798;1253;139175;-62
2024/03/21 10:07:49;;;;;;;30.70;24.50;;;;;;;13.94;49.78;99797.85;438615;1251;139559;-62
2024/03/21 10:17:55;;;;;;;27.60;23.90;;;;;;;14.32;49.84;99798.54;439326;1253;138596;-61
2024/03/21 10:28:01;;;;;;;26.70;22.10;;;;;;;14.64;48.94;99782.91;437840;1254;139206;-61
2024/03/21 10:38:08;;;;;;;27.00;22.40;;;;;;;15.05;48.53;99776.91;438156;1251;138608;-64
2024/03/21 10:48:26;;;;;;;;;;;;;;;15.30;47.55;99769.74;439739;1251;139304;-70
2024/03/21 10:58:31;;;;;;;23.30;20.50;;;;;;;15.43;46.83;99765.05;438473;1253;124827;-60
2024/03/21 11:08:37;;;;;;;24.20;20.60;;;;;;;15.36;46.55;99758.85;438332;1254;139082;-58
2024/03/21 11:18:43;;;;;;;23.50;17.70;;;;;;;15.29;46.50;99749.19;438446;1251;140199;-63
2024/03/21 11:28:50;;;;;;;22.60;19.40;;;;;;;15.21;45.55;99746.56;438795;1251;137986;-58
2024/03/21 11:38:59;;;;;;;24.00;18.10;;;;;;;15.32;45.44;99741.23;439738;1250;140586;-61
2024/03/21 11:49:06;;;;;;;22.60;19.70;;;;;;;15.23;45.08;99741.09;439308;1253;140757;-62
2024/03/21 11:59:12;;;;;;;21.30;18.60;;;;;;;15.06;45.16;99733.28;439910;1256;139106;-62
2024/03/21 12:09:17;;;;;;;23.20;19.50;;;;;;;15.20;45.22;99727.23;440575;1253;138758;-61
2024/03/21 12:19:23;;;;;;;22.70;20.00;;;;;;;15.25;45.25;99715.00;438889;1251;139739;-59
2024/03/21 12:29:29;;;;;;;20.60;16.30;;;;;;;15.35;45.28;99703.41;439624;1253;138676;-57
2024/03/21 12:39:35;;;;;;;19.60;17.10;;;;;;;15.54;45.06;99687.89;439631;1254;138854;-63
2024/03/21 12:49:42;;;;;;;23.90;17.80;;;;;;;15.49;44.40;99678.97;439055;1253;138982;-58
2024/03/21 12:59:48;;;;;;;21.30;16.50;;;;;;;15.37;44.67;99669.54;439297;1253;138622;-68
2024/03/21 13:09:53;;;;;;;17.20;14.90;;;;;;;15.21;44.59;99661.38;438817;1256;139592;-61
2024/03/21 13:19:59;;;;;;;20.60;15.80;;;;;;;15.12;44.80;99648.80;438854;1256;138704;-62
2024/03/21 13:30:07;;;;;;;21.20;14.80;;;;;;;15.20;44.75;99638.37;439160;1255;138701;-70
2024/03/21 13:40:13;;;;;;;19.20;16.70;;;;;;;15.21;44.77;99632.95;439560;1254;138933;-65
2024/03/21 13:50:18;;;;;;;22.80;17.60;;;;;;;15.21;44.86;99624.84;439005;1256;139272;-58
2024/03/21 14:00:29;;;;;;;24.10;17.10;;;;;;;15.14;44.77;99615.05;440227;1253;138688;-62
2024/03/21 14:10:35;;;;;;;22.00;15.60;;;;;;;14.92;44.92;99611.20;439750;1253;139846;-68
2024/03/21 14:20:41;;;;;;;20.50;16.00;;;;;;;14.67;45.11;99608.77;439395;1250;139067;-67
2024/03/21 14:30:47;;;;;;;21.60;17.80;;;;;;;14.51;45.38;99603.33;439445;1253;139208;-70
2024/03/21 14:40:53;;;;;;;24.10;18.00;;;;;;;14.40;45.62;99598.94;439942;1252;140190;-72
2024/03/21 14:50:58;;;;;;;22.90;16.50;;;;;;;14.40;45.83;99592.06;439148;1251;139101;-55
2024/03/21 15:01:04;;;;;;;23.90;16.30;;;;;;;14.34;45.47;99589.39;439083;1254;138832;-59
2024/03/21 15:11:10;;;;;;;22.70;17.20;;;;;;;14.16;45.68;99593.41;438741;1254;138519;-59
2024/03/21 15:21:16;;;;;;;21.10;16.40;;;;;;;14.16;45.88;99594.12;438112;1254;138635;-64
2024/03/21 15:31:22;;;;;;;28.00;19.20;;;;;;;14.10;45.87;99583.83;438255;1251;140373;-59
2024/03/21 15:41:28;;;;;;;28.00;19.30;;;;;;;13.93;46.11;99581.95;438462;1254;138669;-60
2024/03/21 15:51:33;;;;;;;18.30;12.70;;;;;;;13.83;46.44;99578.75;438595;1251;138802;-65
2024/03/21 16:01:39;;;;;;;17.30;10.30;;;;;;;13.60;46.43;99569.90;438568;1253;138898;-67
2024/03/21 16:11:46;;;;;;;17.10;12.50;;;;;;;13.38;46.89;99569.29;438970;1251;138580;-74
2024/03/21 16:22:01;;;;;;;20.30;13.20;;;;;;;13.17;47.35;99563.49;438767;1253;139923;-68
2024/03/21 16:32:07;;;;;;;27.10;14.70;;;;;;;12.91;47.79;99568.73;438403;1254;139757;-61
2024/03/21 16:42:13;;;;;;;14.40;10.80;;;;;;;12.61;48.30;99571.07;438663;1251;139120;-63
2024/03/21 16:52:18;;;;;;;24.50;12.20;;;;;;;12.41;48.61;99569.34;438651;1254;139092;-63
2024/03/21 17:02:24;;;;;;;30.50;19.60;;;;;;;12.21;49.06;99567.22;438548;1251;139261;-62
2024/03/21 17:12:30;;;;;;;39.20;27.60;;;;;;;12.00;49.65;99577.80;438344;1251;139677;-64
2024/03/21 17:22:35;;;;;;;42.80;27.40;;;;;;;11.81;50.17;99587.32;438418;1254;138916;-61
2024/03/21 17:32:41;;;;;;;41.70;25.80;;;;;;;11.67;50.82;99603.27;438237;1254;139366;-62
2024/03/21 17:42:48;;;;;;;40.00;24.80;;;;;;;11.55;51.81;99622.42;438274;1251;139120;-62
2024/03/21 17:52:54;;;;;;;38.20;24.30;;;;;;;11.41;53.57;99625.10;438264;1253;138673;-63
2024/03/21 18:03:00;;;;;;;35.20;24.30;;;;;;;11.20;56.90;99630.16;438262;1254;138872;-63
2024/03/21 18:13:07;;;;;;;37.30;27.60;;;;;;;10.93;59.06;99633.70;438865;1251;139111;-61
2024/03/21 18:23:14;;;;;;;35.90;28.70;;;;;;;10.75;61.54;99639.52;438444;1254;138925;-62
2024/03/21 18:33:19;;;;;;;30.30;25.40;;;;;;;10.58;62.86;99644.79;438150;1251;138992;-62
2024/03/21 18:43:25;;;;;;;34.30;22.80;;;;;;;10.42;63.81;99637.23;439347;1253;140718;-69
2024/03/21 18:53:31;;;;;;;31.40;22.40;;;;;;;10.24;64.35;99631.80;439982;1250;141393;-71
2024/03/21 19:03:36;;;;;;;32.50;22.30;;;;;;;10.13;64.83;99636.02;439364;1250;139243;-72
2024/03/21 19:13:41;;;;;;;39.10;26.00;;;;;;;10.06;65.52;99645.50;439206;1254;139593;-63
2024/03/21 19:23:47;;;;;;;37.30;25.90;;;;;;;10.04;66.97;99642.30;439994;1251;140261;-60
2024/03/21 19:33:53;;;;;;;33.40;24.10;;;;;;;10.00;68.04;99644.67;438644;1253;139241;-59
2024/03/21 19:43:59;;;;;;;34.40;26.00;;;;;;;9.91;68.71;99650.80;437858;1250;139884;-58
2024/03/21 19:54:04;;;;;;;34.30;22.90;;;;;;;9.81;69.18;99647.36;438280;1251;139757;-56
2024/03/21 20:04:14;;;;;;;27.50;18.30;;;;;;;9.75;69.77;99643.52;438037;1253;139686;-57
2024/03/21 20:14:20;;;;;;;28.40;19.10;;;;;;;9.78;70.57;99636.34;434546;1253;5153853;-60
2024/03/21 20:24:26;;;;;;;23.00;17.00;;;;;;;9.83;71.77;99625.58;438115;1253;139900;-59
2024/03/21 20:34:31;;;;;;;23.30;17.70;;;;;;;9.87;73.17;99625.31;439292;1251;139652;-73
2024/03/21 20:44:37;;;;;;;22.20;17.40;;;;;;;9.80;74.25;99623.83;439974;1251;139583;-74
2024/03/21 20:54:42;;;;;;;22.90;17.40;;;;;;;9.79;75.21;99627.36;438262;1250;140181;-71
2024/03/21 21:04:50;;;;;;;25.30;17.70;;;;;;;9.83;75.73;99633.60;438110;1251;140298;-74
2024/03/21 21:14:55;;;;;;;27.40;18.70;;;;;;;9.88;76.05;99628.76;438414;1251;138991;-58
2024/03/21 21:25:01;;;;;;;28.00;20.30;;;;;;;9.91;76.17;99624.34;438081;1250;139937;-57
2024/03/21 21:35:08;;;;;;;23.80;17.70;;;;;;;9.92;76.28;99629.38;437893;1253;139292;-58
2024/03/21 21:45:13;;;;;;;26.90;19.90;;;;;;;9.89;76.87;99634.46;438487;1250;140106;-63
2024/03/21 21:55:19;;;;;;;27.40;20.30;;;;;;;9.87;77.58;99637.77;439668;1251;140511;-63
2024/03/21 22:05:25;;;;;;;27.40;20.40;;;;;;;9.83;78.11;99642.02;438613;1250;140212;-65
2024/03/21 22:15:31;;;;;;;27.00;17.30;;;;;;;9.77;78.60;99639.73;437628;1253;139636;-64
2024/03/21 22:25:45;;;;;;;25.50;18.80;;;;;;;9.68;79.05;99637.67;438185;1250;139599;-64
2024/03/21 22:35:51;;;;;;;26.00;19.50;;;;;;;9.56;79.47;99637.82;438329;1250;139567;-65
2024/03/21 22:46:04;;;;;;;27.60;21.20;;;;;;;9.40;79.99;99634.90;438145;1253;139612;-64
2024/03/21 22:56:12;;;;;;;30.70;22.90;;;;;;;9.28;80.38;99632.29;438040;1251;139035;-65
2024/03/21 23:06:17;;;;;;;30.00;23.20;;;;;;;9.19;80.59;99632.28;438304;1253;139144;-61
2024/03/21 23:16:23;;;;;;;31.80;24.70;;;;;;;9.09;80.74;99626.36;437960;1253;139753;-60
2024/03/21 23:26:29;;;;;;;31.60;24.40;;;;;;;9.06;81.43;99629.34;438037;1251;139623;-65
2024/03/21 23:36:35;;;;;;;31.10;23.50;;;;;;;9.10;81.87;99629.77;438092;1250;139017;-64
2024/03/21 23:46:40;;;;;;;27.40;20.20;;;;;;;9.15;82.68;99627.61;438084;1251;139447;-58
2024/03/21 23:56:57;;;;;;;22.40;19.90;;;;;;;9.17;83.68;99620.85;437921;1251;139031;-58
